createdAt,value
2022-09-28T00:00:19.775Z,2.05
2022-09-28T00:02:46.677Z,2.30
2022-09-28T00:05:13.596Z,2.40
2022-09-28T00:07:40.255Z,3.10
2022-09-28T00:10:07.480Z,2.10
2022-09-28T00:12:34.710Z,1.90
2022-09-28T00:15:01.849Z,3.38
2022-09-28T00:17:28.550Z,1.80
2022-09-28T00:19:57.952Z,2.45
2022-09-28T00:22:24.715Z,2.50
2022-09-28T00:24:51.516Z,2.03
2022-09-28T00:27:18.269Z,1.80
2022-09-28T00:29:45.026Z,1.27
2022-09-28T00:32:12.318Z,1.73
2022-09-28T00:34:42.430Z,3.63
2022-09-28T00:37:09.619Z,2.33
2022-09-28T00:39:38.231Z,2.10
2022-09-28T00:42:14.440Z,1.92
2022-09-28T00:44:47.078Z,1.88
2022-09-28T00:47:19.861Z,1.83
2022-09-28T00:50:03.491Z,2.33
2022-09-28T00:52:42.996Z,2.65
2022-09-28T00:55:15.278Z,1.73
2022-09-28T00:57:44.118Z,3.15
2022-09-28T01:00:11.631Z,1.67
2022-09-28T01:02:38.326Z,2.20
2022-09-28T01:05:06.021Z,2.15
2022-09-28T01:07:32.773Z,1.90
2022-09-28T01:09:59.670Z,4.47
2022-09-28T01:12:26.557Z,1.80
2022-09-28T01:14:53.309Z,1.50
2022-09-28T01:17:30.628Z,1.92
2022-09-28T01:20:18.105Z,1.65
2022-09-28T01:23:22.478Z,1.90
2022-09-28T01:26:08.216Z,2.00
2022-09-28T01:28:34.953Z,2.03
2022-09-28T01:31:09.657Z,1.50
2022-09-28T01:33:41.847Z,2.08
2022-09-28T01:36:40.054Z,1.77
2022-09-28T01:39:09.655Z,1.52
2022-09-28T01:41:40.344Z,1.95
2022-09-28T01:44:10.239Z,1.90
2022-09-28T01:46:44.711Z,1.55
2022-09-28T01:49:15.838Z,2.00
2022-09-28T01:51:53.135Z,1.67
2022-09-28T01:54:24.691Z,2.05
2022-09-28T01:57:00.730Z,1.73
2022-09-28T01:59:30.969Z,1.80
2022-09-28T02:02:15.695Z,1.95
2022-09-28T02:04:48.148Z,1.40
2022-09-28T02:07:34.572Z,2.33
2022-09-28T02:10:05.437Z,1.65
2022-09-28T02:12:43.604Z,1.67
2022-09-28T02:15:23.199Z,1.35
2022-09-28T02:17:49.964Z,1.35
2022-09-28T02:20:17.289Z,1.60
2022-09-28T02:22:56.316Z,1.50
2022-09-28T02:25:26.326Z,1.50
2022-09-28T02:27:57.174Z,1.90
2022-09-28T02:30:23.929Z,1.63
2022-09-28T02:32:51.455Z,1.70
2022-09-28T02:35:18.741Z,1.48
2022-09-28T02:37:45.830Z,1.75
2022-09-28T02:40:20.106Z,1.88
2022-09-28T02:42:51.409Z,2.17
2022-09-28T02:45:27.032Z,2.00
2022-09-28T02:48:03.550Z,2.10
2022-09-28T02:50:37.866Z,1.63
2022-09-28T02:53:10.519Z,1.90
2022-09-28T02:55:40.010Z,1.70
2022-09-28T02:58:18.816Z,1.95
2022-09-28T03:01:09.868Z,1.88
2022-09-28T03:03:55.511Z,1.48
2022-09-28T03:06:53.373Z,1.58
2022-09-28T03:09:23.188Z,1.33
2022-09-28T03:11:55.791Z,2.53
2022-09-28T03:14:22.597Z,1.73
2022-09-28T03:16:49.369Z,1.73
2022-09-28T03:19:17.124Z,1.58
2022-09-28T03:21:43.888Z,1.77
2022-09-28T03:24:11.600Z,2.25
2022-09-28T03:26:39.011Z,2.55
2022-09-28T03:29:05.952Z,1.77
2022-09-28T03:31:32.840Z,1.55
2022-09-28T03:33:59.616Z,1.73
2022-09-28T03:36:26.331Z,1.52
2022-09-28T03:38:55.508Z,1.63
2022-09-28T03:41:23.679Z,2.00
2022-09-28T03:43:50.401Z,1.80
2022-09-28T03:46:17.590Z,1.38
2022-09-28T03:48:44.351Z,3.58
2022-09-28T03:51:11.245Z,2.03
2022-09-28T03:53:37.977Z,1.77
2022-09-28T03:56:05.608Z,2.03
2022-09-28T03:58:32.394Z,1.33
2022-09-28T04:01:06.417Z,1.70
2022-09-28T04:05:59.931Z,1.70
2022-09-28T04:08:26.698Z,2.55
2022-09-28T04:10:56.662Z,2.95
2022-09-28T04:13:23.802Z,2.35
2022-09-28T04:15:54.459Z,2.45
2022-09-28T04:18:21.237Z,1.63
2022-09-28T04:20:48.294Z,2.95
2022-09-28T04:23:17.800Z,3.70
2022-09-28T04:25:47.859Z,1.52
2022-09-28T04:28:33.184Z,2.00
2022-09-28T04:30:59.917Z,1.73
2022-09-28T04:33:26.655Z,1.85
2022-09-28T04:35:53.443Z,2.15
2022-09-28T04:38:30.846Z,1.80
2022-09-28T04:41:07.495Z,2.10
2022-09-28T04:43:34.365Z,1.85
2022-09-28T04:46:01.737Z,1.70
2022-09-28T04:48:28.784Z,1.60
2022-09-28T04:50:56.301Z,2.55
2022-09-28T04:53:23.313Z,1.50
2022-09-28T04:56:00.976Z,1.50
2022-09-28T04:58:27.842Z,2.33
2022-09-28T05:00:57.162Z,1.92
2022-09-28T05:03:23.942Z,1.90
2022-09-28T05:05:50.773Z,1.75
2022-09-28T05:08:18.141Z,2.08
2022-09-28T05:10:45.501Z,1.98
2022-09-28T05:13:12.824Z,3.55
2022-09-28T05:15:40.203Z,2.30
2022-09-28T05:18:07.241Z,3.05
2022-09-28T05:20:34.452Z,3.08
2022-09-28T05:23:01.235Z,1.80
2022-09-28T05:25:27.978Z,2.83
2022-09-28T05:27:56.207Z,2.15
2022-09-28T05:30:23.711Z,2.63
2022-09-28T05:32:51.142Z,2.42
2022-09-28T05:35:18.056Z,2.08
2022-09-28T05:37:44.852Z,3.80
2022-09-28T05:40:11.712Z,2.17
2022-09-28T05:42:38.569Z,3.33
2022-09-28T05:45:06.234Z,2.23
2022-09-28T05:47:39.495Z,1.98
2022-09-28T05:50:07.453Z,2.47
2022-09-28T05:52:34.260Z,2.58
2022-09-28T05:55:02.406Z,2.47
2022-09-28T05:57:30.615Z,1.95
2022-09-28T05:59:57.625Z,2.33
2022-09-28T06:02:24.504Z,2.60
2022-09-28T06:04:51.954Z,3.97
2022-09-28T06:07:19.038Z,2.40
2022-09-28T06:09:45.727Z,3.40
2022-09-28T06:12:15.898Z,2.50
2022-09-28T06:14:42.682Z,2.40
2022-09-28T06:17:10.119Z,3.33
2022-09-28T06:19:36.939Z,2.03
2022-09-28T06:22:03.888Z,3.13
2022-09-28T06:24:30.609Z,1.92
2022-09-28T06:26:57.515Z,3.15
2022-09-28T06:29:24.294Z,2.50
2022-09-28T06:31:51.580Z,2.80
2022-09-28T06:34:19.069Z,2.13
2022-09-28T06:36:45.992Z,2.35
2022-09-28T06:39:14.175Z,2.33
2022-09-28T06:41:41.202Z,2.75
2022-09-28T06:44:08.144Z,2.72
2022-09-28T06:46:38.199Z,3.25
2022-09-28T06:49:09.365Z,2.70
2022-09-28T06:51:36.766Z,2.25
2022-09-28T06:54:03.750Z,2.33
2022-09-28T06:56:32.928Z,2.60
2022-09-28T06:58:59.945Z,3.20
2022-09-28T07:01:26.765Z,2.30
2022-09-28T07:03:55.680Z,2.47
2022-09-28T07:06:24.199Z,2.85
2022-09-28T07:09:03.259Z,2.00
2022-09-28T07:11:39.634Z,2.28
2022-09-28T07:14:07.010Z,1.80
2022-09-28T07:16:59.673Z,3.20
2022-09-28T07:19:21.444Z,3.00
2022-09-28T07:21:58.968Z,2.83
2022-09-28T07:24:31.450Z,3.00
2022-09-28T07:26:59.768Z,3.05
2022-09-28T07:29:26.749Z,3.45
2022-09-28T07:31:54.151Z,2.55
2022-09-28T07:34:24.199Z,2.70
2022-09-28T07:36:58.849Z,4.63
2022-09-28T07:39:25.739Z,2.70
2022-09-28T07:41:56.657Z,2.78
2022-09-28T07:44:26.513Z,2.70
2022-09-28T07:46:53.227Z,5.15
2022-09-28T07:49:22.489Z,2.38
2022-09-28T07:51:49.218Z,2.65
2022-09-28T07:54:15.997Z,3.40
2022-09-28T07:56:42.772Z,2.75
2022-09-28T07:59:09.527Z,3.72
2022-09-28T08:01:36.309Z,2.58
2022-09-28T08:04:03.175Z,3.10
2022-09-28T08:06:30.363Z,3.17
2022-09-28T08:08:59.916Z,3.00
2022-09-28T08:11:26.858Z,2.58
2022-09-28T08:13:55.373Z,3.92
2022-09-28T08:16:22.166Z,2.70
2022-09-28T08:18:49.366Z,2.60
2022-09-28T08:21:34.454Z,3.53
2022-09-28T08:24:01.586Z,2.88
2022-09-28T08:26:29.222Z,3.55
2022-09-28T08:28:56.076Z,3.03
2022-09-28T08:31:22.870Z,3.65
2022-09-28T08:33:54.411Z,3.83
2022-09-28T08:36:21.294Z,3.08
2022-09-28T08:38:48.173Z,3.08
2022-09-28T08:41:40.198Z,3.63
2022-09-28T08:44:24.023Z,3.42
2022-09-28T08:47:02.170Z,3.25
2022-09-28T08:49:32.759Z,3.30
2022-09-28T08:52:17.929Z,3.33
2022-09-28T08:55:00.638Z,3.53
2022-09-28T08:57:52.469Z,2.97
2022-09-28T09:00:51.763Z,3.80
2022-09-28T09:03:25.554Z,2.97
2022-09-28T09:05:52.743Z,3.45
2022-09-28T09:08:25.590Z,3.78
2022-09-28T09:11:16.063Z,3.75
2022-09-28T09:14:16.389Z,2.90
2022-09-28T09:17:01.317Z,2.80
2022-09-28T09:19:36.285Z,3.50
2022-09-28T09:22:17.049Z,3.60
2022-09-28T09:25:03.664Z,3.45
2022-09-28T09:27:44.979Z,3.88
2022-09-28T09:30:19.910Z,3.28
2022-09-28T09:33:06.380Z,4.57
2022-09-28T09:35:38.816Z,3.92
2022-09-28T09:38:28.533Z,3.53
2022-09-28T09:41:42.028Z,3.47
2022-09-28T09:44:27.775Z,3.20
2022-09-28T09:46:55.831Z,3.17
2022-09-28T09:49:24.903Z,3.50
2022-09-28T09:52:00.770Z,2.63
2022-09-28T09:54:35.187Z,4.03
2022-09-28T09:57:05.931Z,2.85
2022-09-28T09:59:34.500Z,2.40
2022-09-28T10:02:02.792Z,3.03
2022-09-28T10:04:35.034Z,2.60
2022-09-28T10:07:04.536Z,2.05
2022-09-28T10:09:39.700Z,1.77
2022-09-28T10:12:11.881Z,2.45
2022-09-28T10:14:38.650Z,2.20
2022-09-28T10:17:05.491Z,1.85
2022-09-28T10:19:33.264Z,1.98
2022-09-28T10:22:04.263Z,1.60
2022-09-28T10:24:41.385Z,3.70
2022-09-28T10:27:13.915Z,1.55
2022-09-28T10:29:50.010Z,1.88
2022-09-28T10:32:27.316Z,1.65
2022-09-28T10:34:54.977Z,1.98
2022-09-28T10:37:21.832Z,3.25
2022-09-28T10:39:55.408Z,1.17
2022-09-28T10:42:32.302Z,1.45
2022-09-28T10:45:20.100Z,1.60
2022-09-28T10:47:46.972Z,1.40
2022-09-28T10:50:23.925Z,1.20
2022-09-28T10:52:50.794Z,1.15
2022-09-28T10:55:36.824Z,0.85
2022-09-28T10:58:42.131Z,0.80
2022-09-28T11:01:10.952Z,1.20
2022-09-28T11:03:58.450Z,0.80
2022-09-28T11:06:30.223Z,1.17
2022-09-28T11:08:58.684Z,1.00
2022-09-28T11:11:25.498Z,1.00
2022-09-28T11:14:03.525Z,1.42
2022-09-28T11:16:32.203Z,0.95
2022-09-28T11:19:03.907Z,1.05
2022-09-28T11:21:34.582Z,1.42
2022-09-28T11:24:08.525Z,0.80
2022-09-28T11:29:07.475Z,0.85
2022-09-28T11:31:36.043Z,0.98
2022-09-28T11:34:41.859Z,1.27
2022-09-28T11:37:20.848Z,0.60
2022-09-28T11:40:17.370Z,0.75
2022-09-28T11:42:47.496Z,1.10
2022-09-28T11:45:25.885Z,1.00
2022-09-28T11:48:02.766Z,0.90
2022-09-28T11:51:07.567Z,1.00
2022-09-28T11:53:50.510Z,0.98
2022-09-28T11:56:35.180Z,1.08
2022-09-28T11:59:34.675Z,1.00
2022-09-28T12:02:10.478Z,1.02
2022-09-28T12:05:05.173Z,0.70
2022-09-28T12:07:37.472Z,0.80
2022-09-28T12:10:12.017Z,0.80
2022-09-28T12:12:48.548Z,0.95
2022-09-28T12:15:20.132Z,1.08
2022-09-28T12:18:08.111Z,0.90
2022-09-28T12:20:43.902Z,1.10
2022-09-28T12:23:26.850Z,0.93
2022-09-28T12:25:59.416Z,1.40
2022-09-28T12:28:39.893Z,1.10
2022-09-28T12:31:19.712Z,1.23
2022-09-28T12:33:48.094Z,1.75
2022-09-28T12:36:35.865Z,1.13
2022-09-28T12:39:35.658Z,1.13
2022-09-28T12:42:06.690Z,0.88
2022-09-28T12:44:59.427Z,1.20
2022-09-28T12:47:26.488Z,0.90
2022-09-28T12:50:37.704Z,0.95
2022-09-28T12:53:20.002Z,1.05
2022-09-28T12:55:56.247Z,1.23
2022-09-28T12:58:26.168Z,0.93
2022-09-28T13:00:57.961Z,1.17
2022-09-28T13:03:53.531Z,0.90
2022-09-28T13:06:41.291Z,1.45
2022-09-28T13:09:24.022Z,0.98
2022-09-28T13:11:54.694Z,0.93
2022-09-28T13:14:52.822Z,1.00
2022-09-28T13:17:19.626Z,0.80
2022-09-28T13:19:59.846Z,0.73
2022-09-28T13:22:44.655Z,1.33
2022-09-28T13:25:19.232Z,1.05
2022-09-28T13:27:59.809Z,1.30
2022-09-28T13:30:27.365Z,1.00
2022-09-28T13:32:57.828Z,1.33
2022-09-28T13:35:24.599Z,1.02
2022-09-28T13:38:16.378Z,1.10
2022-09-28T13:41:04.773Z,0.80
2022-09-28T13:43:34.261Z,0.95
2022-09-28T13:46:14.865Z,1.13
2022-09-28T13:48:54.830Z,1.20
2022-09-28T13:51:38.099Z,0.77
2022-09-28T13:54:13.512Z,0.90
2022-09-28T13:57:10.458Z,0.95
2022-09-28T13:59:55.619Z,1.00
2022-09-28T14:02:28.528Z,1.20
2022-09-28T14:05:07.101Z,4.00
2022-09-28T14:07:33.780Z,1.02
2022-09-28T14:10:25.875Z,1.35
2022-09-28T14:12:53.238Z,1.65
2022-09-28T14:15:28.820Z,1.00
2022-09-28T14:17:58.730Z,2.03
2022-09-28T14:20:26.256Z,1.08
2022-09-28T14:23:05.411Z,1.30
2022-09-28T14:25:41.676Z,1.50
2022-09-28T14:28:08.478Z,1.15
2022-09-28T14:30:38.308Z,0.80
2022-09-28T14:33:19.373Z,1.10
2022-09-28T14:35:56.340Z,1.60
2022-09-28T14:39:06.882Z,2.88
2022-09-28T14:41:37.316Z,1.70
2022-09-28T14:44:06.289Z,0.95
2022-09-28T14:46:35.666Z,1.92
2022-09-28T14:49:03.714Z,0.80
2022-09-28T14:51:30.829Z,0.70
2022-09-28T14:54:46.312Z,0.90
2022-09-28T14:57:16.784Z,1.23
2022-09-28T14:59:44.221Z,0.98
2022-09-28T15:02:10.974Z,0.95
2022-09-28T15:04:44.875Z,0.60
2022-09-28T15:07:21.825Z,0.95
2022-09-28T15:09:50.377Z,0.95
2022-09-28T15:12:18.925Z,1.80
2022-09-28T15:14:53.823Z,0.93
2022-09-28T15:17:39.243Z,1.13
2022-09-28T15:20:25.629Z,0.90
2022-09-28T15:22:57.281Z,1.15
2022-09-28T15:25:31.790Z,0.95
2022-09-28T15:28:13.278Z,1.13
2022-09-28T15:30:40.460Z,1.02
2022-09-28T15:33:44.928Z,0.95
2022-09-28T15:36:22.186Z,0.70
2022-09-28T15:38:57.505Z,1.10
2022-09-28T15:41:24.918Z,1.00
2022-09-28T15:44:13.339Z,1.20
2022-09-28T15:46:41.649Z,0.93
2022-09-28T15:49:20.443Z,0.63
2022-09-28T15:51:52.740Z,0.70
2022-09-28T15:54:27.560Z,1.50
2022-09-28T15:56:59.575Z,1.02
2022-09-28T15:59:34.693Z,1.13
2022-09-28T16:02:17.250Z,0.90
2022-09-28T16:05:01.059Z,2.10
2022-09-28T16:07:40.805Z,1.15
2022-09-28T16:10:13.959Z,2.13
2022-09-28T16:13:08.341Z,0.85
2022-09-28T16:18:18.112Z,0.80
2022-09-28T16:20:45.368Z,0.80
2022-09-28T16:23:19.787Z,1.17
2022-09-28T16:25:53.777Z,0.90
2022-09-28T16:28:38.998Z,1.10
2022-09-28T16:31:17.594Z,0.80
2022-09-28T16:33:47.098Z,1.17
2022-09-28T16:36:15.379Z,0.75
2022-09-28T16:38:48.472Z,1.17
2022-09-28T16:41:19.547Z,1.48
2022-09-28T16:43:46.553Z,0.88
2022-09-28T16:46:17.702Z,0.82
2022-09-28T16:48:51.195Z,0.75
2022-09-28T16:51:19.069Z,0.70
2022-09-28T16:54:04.881Z,0.95
2022-09-28T16:56:33.202Z,1.08
2022-09-28T16:59:00.051Z,1.02
2022-09-28T17:01:27.136Z,1.27
2022-09-28T17:03:54.074Z,1.30
2022-09-28T17:06:22.119Z,0.95
2022-09-28T17:08:48.879Z,1.38
2022-09-28T17:11:22.594Z,1.30
2022-09-28T17:13:50.674Z,1.75
2022-09-28T17:16:32.520Z,1.65
2022-09-28T17:19:23.140Z,1.77
2022-09-28T17:21:51.103Z,1.20
2022-09-28T17:24:19.033Z,1.65
2022-09-28T17:26:46.914Z,1.63
2022-09-28T17:29:14.637Z,2.30
2022-09-28T17:31:45.325Z,1.50
2022-09-28T17:34:13.069Z,1.35
2022-09-28T17:36:41.243Z,1.33
2022-09-28T17:39:15.488Z,1.00
2022-09-28T17:41:42.357Z,1.85
2022-09-28T17:44:09.168Z,1.55
2022-09-28T17:46:37.213Z,1.38
2022-09-28T17:49:05.431Z,1.10
2022-09-28T17:51:34.651Z,1.83
2022-09-28T17:54:01.513Z,1.50
2022-09-28T17:56:32.103Z,2.22
2022-09-28T17:59:11.452Z,1.80
2022-09-28T18:01:38.987Z,1.65
2022-09-28T18:04:08.120Z,1.67
2022-09-28T18:06:35.137Z,1.75
2022-09-28T18:09:05.186Z,2.28
2022-09-28T18:11:32.501Z,1.45
2022-09-28T18:13:59.243Z,1.77
2022-09-28T18:16:28.629Z,1.63
2022-09-28T18:18:55.596Z,1.88
2022-09-28T18:21:22.338Z,1.70
2022-09-28T18:23:49.234Z,1.98
2022-09-28T18:26:16.782Z,2.60
2022-09-28T18:28:43.496Z,2.03
2022-09-28T18:31:11.030Z,2.70
2022-09-28T18:33:50.387Z,1.70
2022-09-28T18:36:18.706Z,1.98
2022-09-28T18:38:45.436Z,2.40
2022-09-28T18:41:17.104Z,3.15
2022-09-28T18:43:49.122Z,2.63
2022-09-28T18:46:17.566Z,3.80
2022-09-28T18:48:44.389Z,3.20
2022-09-28T18:51:11.718Z,2.53
2022-09-28T18:53:38.977Z,2.45
2022-09-28T18:56:08.024Z,2.67
2022-09-28T18:58:36.132Z,2.60
2022-09-28T19:04:00.521Z,2.75
2022-09-28T19:06:27.400Z,2.65
2022-09-28T19:08:55.654Z,2.60
2022-09-28T19:11:22.865Z,3.35
2022-09-28T19:13:49.624Z,3.17
2022-09-28T19:16:29.709Z,3.28
2022-09-28T19:19:00.924Z,3.35
2022-09-28T19:21:27.718Z,3.90
2022-09-28T19:23:55.490Z,4.32
2022-09-28T19:26:24.202Z,2.75
2022-09-28T19:28:50.940Z,3.42
2022-09-28T19:31:17.741Z,3.20
2022-09-28T19:33:48.128Z,3.88
2022-09-28T19:36:19.589Z,3.97
2022-09-28T19:38:46.883Z,3.72
2022-09-28T19:41:43.517Z,3.92
2022-09-28T19:44:27.579Z,4.97
2022-09-28T19:47:06.907Z,6.45
2022-09-28T19:49:38.051Z,4.75
2022-09-28T19:52:16.629Z,4.97
2022-09-28T19:54:45.697Z,5.78
2022-09-28T19:57:14.110Z,5.65
2022-09-28T19:59:40.842Z,6.40
2022-09-28T20:02:07.861Z,6.70
2022-09-28T20:04:34.800Z,6.18
2022-09-28T20:07:03.955Z,5.57
2022-09-28T20:09:31.382Z,5.40
2022-09-28T20:11:58.113Z,5.03
2022-09-28T20:14:28.151Z,4.72
2022-09-28T20:16:58.862Z,5.03
2022-09-28T20:19:26.560Z,5.10
2022-09-28T20:21:53.869Z,4.85
2022-09-28T20:24:20.553Z,4.53
2022-09-28T20:26:49.474Z,3.80
2022-09-28T20:29:16.254Z,4.22
2022-09-28T20:31:43.198Z,3.83
2022-09-28T20:34:10.538Z,4.00
2022-09-28T20:36:37.283Z,4.10
2022-09-28T20:39:04.255Z,4.15
2022-09-28T20:41:35.629Z,3.17
2022-09-28T20:44:05.813Z,4.05
2022-09-28T20:46:36.396Z,4.03
2022-09-28T20:49:04.046Z,3.78
2022-09-28T20:51:30.905Z,4.57
2022-09-28T20:53:58.605Z,3.88
2022-09-28T20:56:26.982Z,3.80
2022-09-28T20:58:54.125Z,4.18
2022-09-28T21:01:22.349Z,4.05
2022-09-28T21:03:58.406Z,3.45
2022-09-28T21:06:27.023Z,3.40
2022-09-28T21:08:54.191Z,4.05
2022-09-28T21:11:22.518Z,3.05
2022-09-28T21:13:59.594Z,2.95
2022-09-28T21:16:28.517Z,3.92
2022-09-28T21:18:56.663Z,3.20
2022-09-28T21:21:23.893Z,2.85
2022-09-28T21:23:54.390Z,4.00
2022-09-28T21:26:25.141Z,3.85
2022-09-28T21:29:06.400Z,3.30
2022-09-28T21:31:45.961Z,3.28
2022-09-28T21:34:19.304Z,3.42
2022-09-28T21:36:51.362Z,3.33
2022-09-28T21:39:18.366Z,3.67
2022-09-28T21:41:45.128Z,3.15
2022-09-28T21:44:11.979Z,3.35
2022-09-28T21:46:38.983Z,2.90
2022-09-28T21:49:07.536Z,5.03
2022-09-28T21:51:35.046Z,3.08
2022-09-28T21:54:01.751Z,3.55
2022-09-28T21:56:28.638Z,2.78
2022-09-28T21:58:55.711Z,3.58
2022-09-28T22:01:23.635Z,3.60
2022-09-28T22:03:52.012Z,3.05
2022-09-28T22:06:19.896Z,3.45
2022-09-28T22:08:47.637Z,3.53
2022-09-28T22:11:19.540Z,3.00
2022-09-28T22:13:47.980Z,3.30
2022-09-28T22:16:15.631Z,3.67
2022-09-28T22:18:42.479Z,3.15
2022-09-28T22:21:10.787Z,3.53
2022-09-28T22:23:37.817Z,3.83
2022-09-28T22:26:05.802Z,4.75
2022-09-28T22:28:32.652Z,4.13
2022-09-28T22:30:59.462Z,4.30
2022-09-28T22:33:26.776Z,3.92
2022-09-28T22:35:53.714Z,3.60
2022-09-28T22:38:20.838Z,3.40
2022-09-28T22:40:51.994Z,3.75
2022-09-28T22:43:18.958Z,3.60
2022-09-28T22:45:45.776Z,4.28
2022-09-28T22:48:12.853Z,3.97
2022-09-28T22:50:39.701Z,3.38
2022-09-28T22:53:06.529Z,3.60
2022-09-28T22:55:33.944Z,3.55
2022-09-28T22:58:01.763Z,3.42
2022-09-28T23:00:28.518Z,2.88
2022-09-28T23:02:55.444Z,3.08
2022-09-28T23:05:22.292Z,2.97
2022-09-28T23:07:49.030Z,2.53
2022-09-28T23:10:15.815Z,2.90
2022-09-28T23:12:42.539Z,2.92
2022-09-28T23:15:10.142Z,2.83
2022-09-28T23:17:37.078Z,2.58
2022-09-28T23:20:04.138Z,3.00
2022-09-28T23:22:30.897Z,2.97
2022-09-28T23:24:57.644Z,2.60
2022-09-28T23:27:24.376Z,3.45
2022-09-28T23:29:53.818Z,2.92
2022-09-28T23:32:20.589Z,2.97
2022-09-28T23:34:47.357Z,3.28
2022-09-28T23:37:14.084Z,2.75
2022-09-28T23:39:40.841Z,2.58
2022-09-28T23:42:07.534Z,2.78
2022-09-28T23:44:34.276Z,3.50
2022-09-28T23:47:01.128Z,2.83
2022-09-28T23:49:28.611Z,2.80
2022-09-28T23:51:56.124Z,2.80
2022-09-28T23:54:22.821Z,2.95
2022-09-28T23:56:50.710Z,2.92
2022-09-28T23:59:17.566Z,3.22
